sensor_id;sensor_type;location;lat;lon;timestamp;temperature;humidity
23143;DHT22;11740;51.168;4.112;2023-05-10T00:29:31;13.00;99.90
23143;DHT22;11740;51.168;4.112;2023-05-10T00:31:59;13.00;91.80
23143;DHT22;11740;51.168;4.112;2023-05-10T00:34:26;13.00;99.90
23143;DHT22;11740;51.168;4.112;2023-05-10T00:36:53;12.90;99.90
23143;DHT22;11740;51.168;4.112;2023-05-10T00:39:20;12.90;99.90
23143;DHT22;11740;51.168;4.112;2023-05-10T00:41:47;13.00;98.60
23143;DHT22;11740;51.168;4.112;2023-05-10T00:44:13;12.90;99.90
23143;DHT22;11740;51.168;4.112;2023-05-10T00:46:41;12.90;99.90
23143;DHT22;11740;51.168;4.112;2023-05-10T00:49:08;12.90;99.90
23143;DHT22;11740;51.168;4.112;2023-05-10T00:51:34;12.90;99.90
23143;DHT22;11740;51.168;4.112;2023-05-10T00:54:02;12.90;99.90
23143;DHT22;11740;51.168;4.112;2023-05-10T00:56:29;12.90;99.90
23143;DHT22;11740;51.168;4.112;2023-05-10T00:58:56;12.90;1.00
23143;DHT22;11740;51.168;4.112;2023-05-10T01:01:23;12.90;99.90
23143;DHT22;11740;51.168;4.112;2023-05-10T01:03:50;12.90;1.00
23143;DHT22;11740;51.168;4.112;2023-05-10T01:06:17;12.90;1.00
23143;DHT22;11740;51.168;4.112;2023-05-10T01:08:44;12.80;1.00
23143;DHT22;11740;51.168;4.112;2023-05-10T01:11:10;12.90;1.00
23143;DHT22;11740;51.168;4.112;2023-05-10T01:13:38;12.80;1.00
23143;DHT22;11740;51.168;4.112;2023-05-10T01:16:06;12.80;1.00
23143;DHT22;11740;51.168;4.112;2023-05-10T01:18:35;12.90;1.00
23143;DHT22;11740;51.168;4.112;2023-05-10T01:29:19;12.80;1.00
23143;DHT22;11740;51.168;4.112;2023-05-10T01:38:18;12.80;1.00
23143;DHT22;11740;51.168;4.112;2023-05-10T01:40:52;12.80;1.00
23143;DHT22;11740;51.168;4.112;2023-05-10T01:43:28;12.80;1.00
23143;DHT22;11740;51.168;4.112;2023-05-10T01:46:02;12.80;1.00
23143;DHT22;11740;51.168;4.112;2023-05-10T01:48:40;12.80;1.00
23143;DHT22;11740;51.168;4.112;2023-05-10T01:51:17;12.80;1.00
23143;DHT22;11740;51.168;4.112;2023-05-10T01:53:48;12.80;1.00
23143;DHT22;11740;51.168;4.112;2023-05-10T01:56:15;12.80;1.00
23143;DHT22;11740;51.168;4.112;2023-05-10T01:58:43;12.80;1.00
23143;DHT22;11740;51.168;4.112;2023-05-10T02:01:12;12.80;1.00
23143;DHT22;11740;51.168;4.112;2023-05-10T02:03:39;12.80;1.00
23143;DHT22;11740;51.168;4.112;2023-05-10T02:06:08;12.80;1.00
23143;DHT22;11740;51.168;4.112;2023-05-10T02:08:35;12.70;1.00
23143;DHT22;11740;51.168;4.112;2023-05-10T02:11:03;12.70;1.00
23143;DHT22;11740;51.168;4.112;2023-05-10T02:13:31;12.70;1.00
23143;DHT22;11740;51.168;4.112;2023-05-10T02:16:00;12.70;1.00
23143;DHT22;11740;51.168;4.112;2023-05-10T02:18:28;12.70;1.00
23143;DHT22;11740;51.168;4.112;2023-05-10T02:20:56;12.70;1.00
23143;DHT22;11740;51.168;4.112;2023-05-10T02:23:24;12.70;1.00
23143;DHT22;11740;51.168;4.112;2023-05-10T02:25:51;12.70;1.00
23143;DHT22;11740;51.168;4.112;2023-05-10T02:28:19;12.70;1.00
23143;DHT22;11740;51.168;4.112;2023-05-10T02:30:46;12.70;1.00
23143;DHT22;11740;51.168;4.112;2023-05-10T02:33:13;12.70;1.00
23143;DHT22;11740;51.168;4.112;2023-05-10T02:35:40;12.60;1.00
23143;DHT22;11740;51.168;4.112;2023-05-10T02:38:07;12.60;1.00
23143;DHT22;11740;51.168;4.112;2023-05-10T02:40:35;12.60;1.00
23143;DHT22;11740;51.168;4.112;2023-05-10T02:43:03;12.60;99.90
23143;DHT22;11740;51.168;4.112;2023-05-10T02:45:31;12.60;99.90
23143;DHT22;11740;51.168;4.112;2023-05-10T02:47:58;12.60;99.90
23143;DHT22;11740;51.168;4.112;2023-05-10T02:50:28;12.60;99.90
23143;DHT22;11740;51.168;4.112;2023-05-10T02:52:59;12.60;99.90
23143;DHT22;11740;51.168;4.112;2023-05-10T02:55:31;12.60;99.90
23143;DHT22;11740;51.168;4.112;2023-05-10T02:58:00;12.60;99.90
23143;DHT22;11740;51.168;4.112;2023-05-10T03:00:27;12.60;99.90
23143;DHT22;11740;51.168;4.112;2023-05-10T03:02:55;12.60;99.90
23143;DHT22;11740;51.168;4.112;2023-05-10T03:05:22;12.60;99.90
23143;DHT22;11740;51.168;4.112;2023-05-10T03:07:49;12.50;99.90
23143;DHT22;11740;51.168;4.112;2023-05-10T03:10:17;12.60;99.90
23143;DHT22;11740;51.168;4.112;2023-05-10T03:15:19;12.50;83.60
23143;DHT22;11740;51.168;4.112;2023-05-10T03:20:49;12.50;30.10
23143;DHT22;11740;51.168;4.112;2023-05-10T03:25:44;12.50;72.90
23143;DHT22;11740;51.168;4.112;2023-05-10T03:28:12;12.50;99.90
23143;DHT22;11740;51.168;4.112;2023-05-10T03:30:41;12.50;99.90
23143;DHT22;11740;51.168;4.112;2023-05-10T03:33:09;12.50;99.90
23143;DHT22;11740;51.168;4.112;2023-05-10T03:35:37;12.40;99.90
23143;DHT22;11740;51.168;4.112;2023-05-10T03:38:03;12.40;99.90
23143;DHT22;11740;51.168;4.112;2023-05-10T03:40:30;12.50;99.90
23143;DHT22;11740;51.168;4.112;2023-05-10T03:42:58;12.40;99.90
23143;DHT22;11740;51.168;4.112;2023-05-10T03:45:25;12.40;99.90
23143;DHT22;11740;51.168;4.112;2023-05-10T03:47:52;12.50;99.90
23143;DHT22;11740;51.168;4.112;2023-05-10T03:50:20;12.40;87.70
23143;DHT22;11740;51.168;4.112;2023-05-10T03:52:47;12.40;99.90
23143;DHT22;11740;51.168;4.112;2023-05-10T03:55:14;12.40;70.70
23143;DHT22;11740;51.168;4.112;2023-05-10T03:57:41;12.40;99.90
23143;DHT22;11740;51.168;4.112;2023-05-10T04:00:08;12.40;99.90
23143;DHT22;11740;51.168;4.112;2023-05-10T04:02:36;12.40;99.90
23143;DHT22;11740;51.168;4.112;2023-05-10T04:05:04;12.40;99.90
23143;DHT22;11740;51.168;4.112;2023-05-10T04:07:31;12.40;99.90
23143;DHT22;11740;51.168;4.112;2023-05-10T04:09:57;12.40;99.90
23143;DHT22;11740;51.168;4.112;2023-05-10T04:12:24;12.40;99.90
23143;DHT22;11740;51.168;4.112;2023-05-10T04:14:51;12.40;99.90
23143;DHT22;11740;51.168;4.112;2023-05-10T04:17:18;12.40;99.90
23143;DHT22;11740;51.168;4.112;2023-05-10T04:19:45;12.40;99.90
23143;DHT22;11740;51.168;4.112;2023-05-10T04:22:11;12.40;99.90
23143;DHT22;11740;51.168;4.112;2023-05-10T04:24:38;12.40;99.90
23143;DHT22;11740;51.168;4.112;2023-05-10T04:27:05;12.40;99.90
23143;DHT22;11740;51.168;4.112;2023-05-10T04:29:32;12.40;99.90
23143;DHT22;11740;51.168;4.112;2023-05-10T04:31:58;12.40;99.90
23143;DHT22;11740;51.168;4.112;2023-05-10T04:34:25;12.30;1.00
23143;DHT22;11740;51.168;4.112;2023-05-10T04:36:52;12.40;99.90
23143;DHT22;11740;51.168;4.112;2023-05-10T04:39:19;12.40;99.90
23143;DHT22;11740;51.168;4.112;2023-05-10T04:41:45;12.40;99.90
23143;DHT22;11740;51.168;4.112;2023-05-10T04:44:12;12.40;99.90
23143;DHT22;11740;51.168;4.112;2023-05-10T04:46:39;12.40;99.90
23143;DHT22;11740;51.168;4.112;2023-05-10T04:49:06;12.40;99.90
23143;DHT22;11740;51.168;4.112;2023-05-10T04:51:33;12.40;99.90
23143;DHT22;11740;51.168;4.112;2023-05-10T04:53:59;12.40;99.90
23143;DHT22;11740;51.168;4.112;2023-05-10T04:56:32;12.40;99.90
23143;DHT22;11740;51.168;4.112;2023-05-10T04:58:59;12.40;99.90
23143;DHT22;11740;51.168;4.112;2023-05-10T05:01:26;12.40;99.90
23143;DHT22;11740;51.168;4.112;2023-05-10T05:03:53;12.40;99.90
23143;DHT22;11740;51.168;4.112;2023-05-10T05:06:20;12.40;99.90
23143;DHT22;11740;51.168;4.112;2023-05-10T05:08:51;12.40;99.90
23143;DHT22;11740;51.168;4.112;2023-05-10T05:11:18;12.40;99.90
23143;DHT22;11740;51.168;4.112;2023-05-10T05:13:44;12.40;99.90
23143;DHT22;11740;51.168;4.112;2023-05-10T05:16:12;12.40;99.90
23143;DHT22;11740;51.168;4.112;2023-05-10T05:18:38;12.40;99.90
23143;DHT22;11740;51.168;4.112;2023-05-10T05:21:17;12.50;99.90
23143;DHT22;11740;51.168;4.112;2023-05-10T05:23:45;12.50;80.10
23143;DHT22;11740;51.168;4.112;2023-05-10T05:26:12;12.50;99.90
23143;DHT22;11740;51.168;4.112;2023-05-10T05:28:39;12.50;99.90
23143;DHT22;11740;51.168;4.112;2023-05-10T05:31:06;12.60;99.90
23143;DHT22;11740;51.168;4.112;2023-05-10T05:33:36;12.50;99.90
23143;DHT22;11740;51.168;4.112;2023-05-10T05:36:04;12.60;99.90
23143;DHT22;11740;51.168;4.112;2023-05-10T05:38:32;12.60;99.90
23143;DHT22;11740;51.168;4.112;2023-05-10T05:40:59;12.60;99.90
23143;DHT22;11740;51.168;4.112;2023-05-10T05:43:26;12.60;99.90
23143;DHT22;11740;51.168;4.112;2023-05-10T05:45:52;12.60;99.90
23143;DHT22;11740;51.168;4.112;2023-05-10T05:48:20;12.60;99.90
23143;DHT22;11740;51.168;4.112;2023-05-10T05:50:47;12.60;99.90
23143;DHT22;11740;51.168;4.112;2023-05-10T05:53:14;12.60;99.90
23143;DHT22;11740;51.168;4.112;2023-05-10T05:55:46;12.70;99.90
23143;DHT22;11740;51.168;4.112;2023-05-10T05:58:17;12.70;99.90
23143;DHT22;11740;51.168;4.112;2023-05-10T06:00:44;12.60;99.90
23143;DHT22;11740;51.168;4.112;2023-05-10T06:03:11;12.70;99.90
23143;DHT22;11740;51.168;4.112;2023-05-10T06:05:38;12.70;99.90
23143;DHT22;11740;51.168;4.112;2023-05-10T06:08:05;12.70;99.90
23143;DHT22;11740;51.168;4.112;2023-05-10T06:10:31;12.70;99.90
23143;DHT22;11740;51.168;4.112;2023-05-10T06:12:58;12.80;99.90
23143;DHT22;11740;51.168;4.112;2023-05-10T06:15:25;12.80;99.90
23143;DHT22;11740;51.168;4.112;2023-05-10T06:17:52;12.80;99.90
23143;DHT22;11740;51.168;4.112;2023-05-10T06:20:19;12.80;99.90
23143;DHT22;11740;51.168;4.112;2023-05-10T06:22:46;12.80;99.90
23143;DHT22;11740;51.168;4.112;2023-05-10T06:25:12;12.80;99.90
23143;DHT22;11740;51.168;4.112;2023-05-10T06:27:41;12.80;99.90
23143;DHT22;11740;51.168;4.112;2023-05-10T06:30:07;12.80;99.90
23143;DHT22;11740;51.168;4.112;2023-05-10T06:32:39;12.80;99.90
23143;DHT22;11740;51.168;4.112;2023-05-10T06:35:06;12.80;99.90
23143;DHT22;11740;51.168;4.112;2023-05-10T06:37:33;12.80;99.90
23143;DHT22;11740;51.168;4.112;2023-05-10T06:40:00;12.80;99.90
23143;DHT22;11740;51.168;4.112;2023-05-10T06:42:28;12.80;99.90
23143;DHT22;11740;51.168;4.112;2023-05-10T06:44:55;12.80;99.90
23143;DHT22;11740;51.168;4.112;2023-05-10T06:47:21;12.80;99.90
23143;DHT22;11740;51.168;4.112;2023-05-10T06:49:48;12.80;99.90
23143;DHT22;11740;51.168;4.112;2023-05-10T06:52:15;12.90;99.90
23143;DHT22;11740;51.168;4.112;2023-05-10T06:54:42;12.80;99.90
23143;DHT22;11740;51.168;4.112;2023-05-10T06:57:08;12.90;99.90
23143;DHT22;11740;51.168;4.112;2023-05-10T06:59:55;12.90;99.90
23143;DHT22;11740;51.168;4.112;2023-05-10T07:02:22;12.90;99.90
23143;DHT22;11740;51.168;4.112;2023-05-10T07:04:49;13.00;99.90
23143;DHT22;11740;51.168;4.112;2023-05-10T07:07:18;13.10;99.90
23143;DHT22;11740;51.168;4.112;2023-05-10T07:09:45;13.10;35.20
23143;DHT22;11740;51.168;4.112;2023-05-10T07:12:12;13.20;1.00
23143;DHT22;11740;51.168;4.112;2023-05-10T07:14:41;13.30;1.00
23143;DHT22;11740;51.168;4.112;2023-05-10T07:17:08;13.30;1.00
23143;DHT22;11740;51.168;4.112;2023-05-10T07:19:35;13.40;1.00
23143;DHT22;11740;51.168;4.112;2023-05-10T07:22:02;13.40;1.00
23143;DHT22;11740;51.168;4.112;2023-05-10T07:24:29;13.40;1.00
23143;DHT22;11740;51.168;4.112;2023-05-10T07:26:57;13.60;1.00
23143;DHT22;11740;51.168;4.112;2023-05-10T07:29:24;13.70;99.90
23143;DHT22;11740;51.168;4.112;2023-05-10T07:31:51;13.70;99.90
23143;DHT22;11740;51.168;4.112;2023-05-10T07:34:18;13.80;99.90
23143;DHT22;11740;51.168;4.112;2023-05-10T07:36:45;13.90;99.90
23143;DHT22;11740;51.168;4.112;2023-05-10T07:39:11;13.90;99.90
23143;DHT22;11740;51.168;4.112;2023-05-10T07:41:51;13.90;1.00
23143;DHT22;11740;51.168;4.112;2023-05-10T07:44:18;14.00;1.00
23143;DHT22;11740;51.168;4.112;2023-05-10T07:46:46;13.90;1.00
23143;DHT22;11740;51.168;4.112;2023-05-10T07:49:14;13.90;1.00
23143;DHT22;11740;51.168;4.112;2023-05-10T07:51:41;13.90;1.00
23143;DHT22;11740;51.168;4.112;2023-05-10T07:54:08;13.90;1.00
23143;DHT22;11740;51.168;4.112;2023-05-10T07:56:35;14.00;1.00
23143;DHT22;11740;51.168;4.112;2023-05-10T07:59:03;14.20;99.90
23143;DHT22;11740;51.168;4.112;2023-05-10T08:01:31;14.30;1.00
23143;DHT22;11740;51.168;4.112;2023-05-10T08:03:59;14.50;34.50
23143;DHT22;11740;51.168;4.112;2023-05-10T08:06:26;14.60;1.00
23143;DHT22;11740;51.168;4.112;2023-05-10T08:08:54;14.70;1.00
23143;DHT22;11740;51.168;4.112;2023-05-10T08:11:22;14.80;99.90
23143;DHT22;11740;51.168;4.112;2023-05-10T08:13:49;15.00;1.00
23143;DHT22;11740;51.168;4.112;2023-05-10T08:16:16;15.20;1.00
23143;DHT22;11740;51.168;4.112;2023-05-10T08:18:44;15.20;84.90
23143;DHT22;11740;51.168;4.112;2023-05-10T08:21:12;15.30;99.90
23143;DHT22;11740;51.168;4.112;2023-05-10T08:23:40;15.40;1.00
23143;DHT22;11740;51.168;4.112;2023-05-10T08:26:07;15.50;1.00
23143;DHT22;11740;51.168;4.112;2023-05-10T08:28:34;15.60;1.00
23143;DHT22;11740;51.168;4.112;2023-05-10T08:31:00;15.80;1.00
23143;DHT22;11740;51.168;4.112;2023-05-10T08:33:27;15.80;1.00
23143;DHT22;11740;51.168;4.112;2023-05-10T08:35:54;15.90;1.00
23143;DHT22;11740;51.168;4.112;2023-05-10T08:38:21;16.10;1.00
23143;DHT22;11740;51.168;4.112;2023-05-10T08:40:48;16.30;1.00
23143;DHT22;11740;51.168;4.112;2023-05-10T08:43:17;16.30;1.00
23143;DHT22;11740;51.168;4.112;2023-05-10T08:45:44;16.40;1.00
23143;DHT22;11740;51.168;4.112;2023-05-10T08:48:13;16.40;99.90
23143;DHT22;11740;51.168;4.112;2023-05-10T08:50:41;16.30;99.90
23143;DHT22;11740;51.168;4.112;2023-05-10T08:53:12;16.40;99.90
23143;DHT22;11740;51.168;4.112;2023-05-10T08:55:40;16.30;99.90
23143;DHT22;11740;51.168;4.112;2023-05-10T08:58:08;16.30;99.90
23143;DHT22;11740;51.168;4.112;2023-05-10T09:00:36;16.50;99.90
23143;DHT22;11740;51.168;4.112;2023-05-10T09:03:04;16.40;99.90
23143;DHT22;11740;51.168;4.112;2023-05-10T09:05:32;16.40;99.90
23143;DHT22;11740;51.168;4.112;2023-05-10T09:07:59;16.30;99.90
23143;DHT22;11740;51.168;4.112;2023-05-10T09:10:29;16.00;99.90
23143;DHT22;11740;51.168;4.112;2023-05-10T09:12:56;15.90;99.90
23143;DHT22;11740;51.168;4.112;2023-05-10T09:15:25;16.00;1.00
23143;DHT22;11740;51.168;4.112;2023-05-10T09:17:52;16.00;1.00
23143;DHT22;11740;51.168;4.112;2023-05-10T09:20:19;15.90;1.00
23143;DHT22;11740;51.168;4.112;2023-05-10T09:22:47;16.00;1.00
23143;DHT22;11740;51.168;4.112;2023-05-10T09:25:14;16.10;1.00
23143;DHT22;11740;51.168;4.112;2023-05-10T09:27:46;16.40;1.00
23143;DHT22;11740;51.168;4.112;2023-05-10T09:30:17;16.50;1.00
23143;DHT22;11740;51.168;4.112;2023-05-10T09:32:53;16.70;99.90
23143;DHT22;11740;51.168;4.112;2023-05-10T09:35:22;16.90;1.00
23143;DHT22;11740;51.168;4.112;2023-05-10T09:37:56;17.30;1.00
23143;DHT22;11740;51.168;4.112;2023-05-10T09:40:24;17.40;1.00
23143;DHT22;11740;51.168;4.112;2023-05-10T09:45:23;17.30;99.90
23143;DHT22;11740;51.168;4.112;2023-05-10T09:47:51;17.50;99.90
23143;DHT22;11740;51.168;4.112;2023-05-10T09:50:20;17.60;99.90
23143;DHT22;11740;51.168;4.112;2023-05-10T09:52:57;17.70;99.90
23143;DHT22;11740;51.168;4.112;2023-05-10T09:55:37;17.90;99.90
23143;DHT22;11740;51.168;4.112;2023-05-10T09:58:04;18.00;99.90
23143;DHT22;11740;51.168;4.112;2023-05-10T10:00:39;18.10;25.70
23143;DHT22;11740;51.168;4.112;2023-05-10T10:03:12;18.10;43.70
23143;DHT22;11740;51.168;4.112;2023-05-10T10:05:43;18.10;99.90
23143;DHT22;11740;51.168;4.112;2023-05-10T10:08:11;18.20;99.90
23143;DHT22;11740;51.168;4.112;2023-05-10T10:10:38;18.10;1.00
23143;DHT22;11740;51.168;4.112;2023-05-10T10:13:12;18.20;1.00
23143;DHT22;11740;51.168;4.112;2023-05-10T10:15:40;18.10;1.00
23143;DHT22;11740;51.168;4.112;2023-05-10T10:18:08;17.90;1.00
23143;DHT22;11740;51.168;4.112;2023-05-10T10:20:39;17.80;1.00
23143;DHT22;11740;51.168;4.112;2023-05-10T10:23:07;17.90;1.00
23143;DHT22;11740;51.168;4.112;2023-05-10T10:25:34;17.80;1.00
23143;DHT22;11740;51.168;4.112;2023-05-10T10:28:06;18.10;17.40
23143;DHT22;11740;51.168;4.112;2023-05-10T10:30:41;18.20;24.00
23143;DHT22;11740;51.168;4.112;2023-05-10T10:35:55;18.00;1.00
23143;DHT22;11740;51.168;4.112;2023-05-10T10:38:24;18.30;18.50
23143;DHT22;11740;51.168;4.112;2023-05-10T10:41:01;18.30;1.00
23143;DHT22;11740;51.168;4.112;2023-05-10T10:43:29;18.40;1.00
23143;DHT22;11740;51.168;4.112;2023-05-10T10:46:15;18.60;1.00
23143;DHT22;11740;51.168;4.112;2023-05-10T10:48:47;18.60;1.00
23143;DHT22;11740;51.168;4.112;2023-05-10T10:51:14;18.50;1.00
23143;DHT22;11740;51.168;4.112;2023-05-10T10:53:41;18.50;1.00
23143;DHT22;11740;51.168;4.112;2023-05-10T10:56:10;18.60;1.00
23143;DHT22;11740;51.168;4.112;2023-05-10T10:58:38;18.60;1.00
23143;DHT22;11740;51.168;4.112;2023-05-10T11:01:15;18.60;1.00
23143;DHT22;11740;51.168;4.112;2023-05-10T11:06:32;18.60;1.00
23143;DHT22;11740;51.168;4.112;2023-05-10T11:09:12;18.70;1.00
23143;DHT22;11740;51.168;4.112;2023-05-10T11:11:48;18.80;1.00
23143;DHT22;11740;51.168;4.112;2023-05-10T11:14:19;18.50;1.00
23143;DHT22;11740;51.168;4.112;2023-05-10T11:16:50;18.60;1.00
23143;DHT22;11740;51.168;4.112;2023-05-10T11:19:17;18.60;1.00
23143;DHT22;11740;51.168;4.112;2023-05-10T11:24:29;18.80;1.00
23143;DHT22;11740;51.168;4.112;2023-05-10T11:26:56;18.90;1.00
23143;DHT22;11740;51.168;4.112;2023-05-10T11:29:23;19.10;1.00
23143;DHT22;11740;51.168;4.112;2023-05-10T11:31:52;19.20;1.00
23143;DHT22;11740;51.168;4.112;2023-05-10T11:34:29;19.40;1.00
23143;DHT22;11740;51.168;4.112;2023-05-10T11:36:57;19.30;1.00
23143;DHT22;11740;51.168;4.112;2023-05-10T11:39:28;19.10;1.00
23143;DHT22;11740;51.168;4.112;2023-05-10T11:41:57;18.80;1.00
23143;DHT22;11740;51.168;4.112;2023-05-10T11:44:28;18.90;1.00
23143;DHT22;11740;51.168;4.112;2023-05-10T11:47:00;19.10;1.00
23143;DHT22;11740;51.168;4.112;2023-05-10T11:49:27;19.30;1.00
23143;DHT22;11740;51.168;4.112;2023-05-10T11:52:03;19.10;1.00
23143;DHT22;11740;51.168;4.112;2023-05-10T11:54:31;19.00;1.00
23143;DHT22;11740;51.168;4.112;2023-05-10T11:56:57;18.80;1.00
23143;DHT22;11740;51.168;4.112;2023-05-10T11:59:24;18.80;1.00
23143;DHT22;11740;51.168;4.112;2023-05-10T12:01:51;18.80;1.00
23143;DHT22;11740;51.168;4.112;2023-05-10T12:04:18;18.90;1.00
23143;DHT22;11740;51.168;4.112;2023-05-10T12:06:46;19.00;1.00
23143;DHT22;11740;51.168;4.112;2023-05-10T12:09:13;18.90;1.00
23143;DHT22;11740;51.168;4.112;2023-05-10T12:11:43;18.80;1.00
23143;DHT22;11740;51.168;4.112;2023-05-10T12:14:10;18.80;1.00
23143;DHT22;11740;51.168;4.112;2023-05-10T12:16:37;18.60;1.00
23143;DHT22;11740;51.168;4.112;2023-05-10T12:19:04;18.60;1.00
23143;DHT22;11740;51.168;4.112;2023-05-10T12:21:32;18.60;1.00
23143;DHT22;11740;51.168;4.112;2023-05-10T12:24:01;18.50;1.00
23143;DHT22;11740;51.168;4.112;2023-05-10T12:26:29;18.80;1.00
23143;DHT22;11740;51.168;4.112;2023-05-10T12:29:12;18.80;1.00
23143;DHT22;11740;51.168;4.112;2023-05-10T12:31:52;18.90;1.00
23143;DHT22;11740;51.168;4.112;2023-05-10T12:36:57;19.00;1.00
23143;DHT22;11740;51.168;4.112;2023-05-10T12:39:24;18.80;1.00
23143;DHT22;11740;51.168;4.112;2023-05-10T12:41:51;18.80;1.00
23143;DHT22;11740;51.168;4.112;2023-05-10T12:44:18;18.50;1.00
23143;DHT22;11740;51.168;4.112;2023-05-10T12:46:46;18.40;1.00
23143;DHT22;11740;51.168;4.112;2023-05-10T12:49:12;18.30;1.00
23143;DHT22;11740;51.168;4.112;2023-05-10T12:51:39;18.20;1.00
23143;DHT22;11740;51.168;4.112;2023-05-10T12:54:06;18.20;1.00
23143;DHT22;11740;51.168;4.112;2023-05-10T12:56:33;18.20;1.00
23143;DHT22;11740;51.168;4.112;2023-05-10T12:59:00;18.30;1.00
23143;DHT22;11740;51.168;4.112;2023-05-10T13:01:26;18.30;1.00
23143;DHT22;11740;51.168;4.112;2023-05-10T13:03:53;18.30;1.00
23143;DHT22;11740;51.168;4.112;2023-05-10T13:06:20;18.30;1.00
23143;DHT22;11740;51.168;4.112;2023-05-10T13:08:47;18.20;1.00
23143;DHT22;11740;51.168;4.112;2023-05-10T13:11:14;18.30;99.90
23143;DHT22;11740;51.168;4.112;2023-05-10T13:13:43;18.50;44.30
23143;DHT22;11740;51.168;4.112;2023-05-10T13:16:10;18.60;27.60
23143;DHT22;11740;51.168;4.112;2023-05-10T13:18:37;18.60;94.90
23143;DHT22;11740;51.168;4.112;2023-05-10T13:21:03;18.60;99.90
23143;DHT22;11740;51.168;4.112;2023-05-10T13:23:31;18.70;94.30
23143;DHT22;11740;51.168;4.112;2023-05-10T13:25:58;18.60;44.90
23143;DHT22;11740;51.168;4.112;2023-05-10T13:28:25;18.70;99.90
23143;DHT22;11740;51.168;4.112;2023-05-10T13:30:52;18.80;4.40
23143;DHT22;11740;51.168;4.112;2023-05-10T13:33:19;18.70;44.80
23143;DHT22;11740;51.168;4.112;2023-05-10T13:35:46;18.60;22.20
23143;DHT22;11740;51.168;4.112;2023-05-10T13:38:13;18.70;52.50
23143;DHT22;11740;51.168;4.112;2023-05-10T13:40:40;18.70;1.00
23143;DHT22;11740;51.168;4.112;2023-05-10T13:43:07;18.70;28.20
23143;DHT22;11740;51.168;4.112;2023-05-10T13:45:35;18.80;31.20
23143;DHT22;11740;51.168;4.112;2023-05-10T13:48:02;18.80;7.30
23143;DHT22;11740;51.168;4.112;2023-05-10T13:50:29;18.80;18.60
23143;DHT22;11740;51.168;4.112;2023-05-10T13:52:56;18.90;7.00
23143;DHT22;11740;51.168;4.112;2023-05-10T13:55:23;18.80;22.10
23143;DHT22;11740;51.168;4.112;2023-05-10T13:57:50;18.80;12.60
23143;DHT22;11740;51.168;4.112;2023-05-10T14:00:16;18.80;14.50
23143;DHT22;11740;51.168;4.112;2023-05-10T14:02:43;18.60;25.00
23143;DHT22;11740;51.168;4.112;2023-05-10T14:05:10;18.60;31.40
23143;DHT22;11740;51.168;4.112;2023-05-10T14:07:38;18.60;59.90
23143;DHT22;11740;51.168;4.112;2023-05-10T14:10:05;18.50;57.50
23143;DHT22;11740;51.168;4.112;2023-05-10T14:12:32;18.40;59.00
23143;DHT22;11740;51.168;4.112;2023-05-10T14:14:59;18.50;90.40
23143;DHT22;11740;51.168;4.112;2023-05-10T14:17:26;18.20;1.30
23143;DHT22;11740;51.168;4.112;2023-05-10T14:19:53;18.00;5.40
23143;DHT22;11740;51.168;4.112;2023-05-10T14:22:20;17.90;33.90
23143;DHT22;11740;51.168;4.112;2023-05-10T14:24:46;18.00;87.90
23143;DHT22;11740;51.168;4.112;2023-05-10T14:27:14;18.00;62.10
23143;DHT22;11740;51.168;4.112;2023-05-10T14:29:41;17.80;55.50
23143;DHT22;11740;51.168;4.112;2023-05-10T14:32:08;17.70;99.90
23143;DHT22;11740;51.168;4.112;2023-05-10T14:34:35;17.70;85.80
23143;DHT22;11740;51.168;4.112;2023-05-10T14:37:02;17.70;62.60
23143;DHT22;11740;51.168;4.112;2023-05-10T14:39:29;17.60;86.70
23143;DHT22;11740;51.168;4.112;2023-05-10T14:41:56;17.60;99.90
23143;DHT22;11740;51.168;4.112;2023-05-10T14:44:23;17.60;99.90
23143;DHT22;11740;51.168;4.112;2023-05-10T14:46:50;17.60;99.90
23143;DHT22;11740;51.168;4.112;2023-05-10T14:49:17;17.80;99.90
23143;DHT22;11740;51.168;4.112;2023-05-10T14:51:43;17.70;99.90
23143;DHT22;11740;51.168;4.112;2023-05-10T14:54:11;17.60;99.90
23143;DHT22;11740;51.168;4.112;2023-05-10T14:56:38;17.60;99.90
23143;DHT22;11740;51.168;4.112;2023-05-10T14:59:05;17.60;87.10
23143;DHT22;11740;51.168;4.112;2023-05-10T15:01:33;17.50;86.40
23143;DHT22;11740;51.168;4.112;2023-05-10T15:04:02;17.50;92.80
23143;DHT22;11740;51.168;4.112;2023-05-10T15:06:33;17.50;89.10
23143;DHT22;11740;51.168;4.112;2023-05-10T15:09:01;17.50;87.30
23143;DHT22;11740;51.168;4.112;2023-05-10T15:11:28;17.50;86.20
23143;DHT22;11740;51.168;4.112;2023-05-10T15:13:55;17.30;99.90
23143;DHT22;11740;51.168;4.112;2023-05-10T15:16:22;17.10;99.90
23143;DHT22;11740;51.168;4.112;2023-05-10T15:18:49;17.10;99.90
23143;DHT22;11740;51.168;4.112;2023-05-10T15:21:17;17.10;99.90
23143;DHT22;11740;51.168;4.112;2023-05-10T15:23:44;17.10;99.90
23143;DHT22;11740;51.168;4.112;2023-05-10T15:26:10;17.00;99.90
23143;DHT22;11740;51.168;4.112;2023-05-10T15:28:37;16.90;99.90
23143;DHT22;11740;51.168;4.112;2023-05-10T15:31:04;17.00;99.90
23143;DHT22;11740;51.168;4.112;2023-05-10T15:33:31;16.90;99.90
23143;DHT22;11740;51.168;4.112;2023-05-10T15:35:58;16.90;99.90
23143;DHT22;11740;51.168;4.112;2023-05-10T15:38:24;16.70;99.90
23143;DHT22;11740;51.168;4.112;2023-05-10T15:40:55;16.70;99.90
23143;DHT22;11740;51.168;4.112;2023-05-10T15:43:23;16.70;99.90
23143;DHT22;11740;51.168;4.112;2023-05-10T15:45:50;16.80;99.90
23143;DHT22;11740;51.168;4.112;2023-05-10T15:48:16;16.70;99.90
23143;DHT22;11740;51.168;4.112;2023-05-10T15:50:43;16.60;99.90
23143;DHT22;11740;51.168;4.112;2023-05-10T15:53:10;16.60;99.90
23143;DHT22;11740;51.168;4.112;2023-05-10T15:55:37;16.60;99.90
23143;DHT22;11740;51.168;4.112;2023-05-10T15:58:04;16.50;99.90
23143;DHT22;11740;51.168;4.112;2023-05-10T16:00:30;16.40;99.90
23143;DHT22;11740;51.168;4.112;2023-05-10T16:02:57;16.50;99.90
23143;DHT22;11740;51.168;4.112;2023-05-10T16:05:24;16.40;99.90
23143;DHT22;11740;51.168;4.112;2023-05-10T16:07:54;16.40;99.90
23143;DHT22;11740;51.168;4.112;2023-05-10T16:10:21;16.30;1.00
23143;DHT22;11740;51.168;4.112;2023-05-10T16:12:48;16.30;1.00
23143;DHT22;11740;51.168;4.112;2023-05-10T16:15:15;16.20;1.00
23143;DHT22;11740;51.168;4.112;2023-05-10T16:17:42;16.20;1.00
23143;DHT22;11740;51.168;4.112;2023-05-10T16:20:09;16.20;1.00
23143;DHT22;11740;51.168;4.112;2023-05-10T16:22:36;16.10;1.00
23143;DHT22;11740;51.168;4.112;2023-05-10T16:25:03;16.20;1.00
23143;DHT22;11740;51.168;4.112;2023-05-10T16:27:31;16.10;1.00
23143;DHT22;11740;51.168;4.112;2023-05-10T16:29:58;16.10;1.00
23143;DHT22;11740;51.168;4.112;2023-05-10T16:32:25;16.20;1.00
23143;DHT22;11740;51.168;4.112;2023-05-10T16:34:52;16.20;1.00
23143;DHT22;11740;51.168;4.112;2023-05-10T16:37:19;16.00;1.00
23143;DHT22;11740;51.168;4.112;2023-05-10T16:39:46;16.00;1.00
23143;DHT22;11740;51.168;4.112;2023-05-10T16:42:13;16.10;1.00
23143;DHT22;11740;51.168;4.112;2023-05-10T16:44:40;16.10;1.00
23143;DHT22;11740;51.168;4.112;2023-05-10T16:47:07;16.00;1.00